createdAt,value
2019-03-25T00:01:34.694Z,4.73
2019-03-25T00:04:04.955Z,4.50
2019-03-25T00:06:34.918Z,4.00
2019-03-25T00:09:07.270Z,4.70
2019-03-25T00:11:37.574Z,4.30
2019-03-25T00:14:07.807Z,4.43
2019-03-25T00:16:37.954Z,3.90
2019-03-25T00:19:08.113Z,4.40
2019-03-25T00:21:38.042Z,4.37
2019-03-25T00:24:08.246Z,3.73
2019-03-25T00:26:38.300Z,4.50
2019-03-25T00:29:08.245Z,3.97
2019-03-25T00:31:38.219Z,4.70
2019-03-25T00:34:08.199Z,4.20
2019-03-25T00:36:38.337Z,3.70
2019-03-25T00:39:08.839Z,4.20
2019-03-25T00:41:38.796Z,4.30
2019-03-25T00:44:08.865Z,3.87
2019-03-25T00:46:38.891Z,4.03
2019-03-25T00:49:09.105Z,3.83
2019-03-25T00:51:39.130Z,3.60
2019-03-25T00:54:09.447Z,4.03
2019-03-25T00:56:39.433Z,3.33
2019-03-25T00:59:09.427Z,3.70
2019-03-25T01:01:39.397Z,2.87
2019-03-25T01:04:09.463Z,3.50
2019-03-25T01:06:39.390Z,3.20
2019-03-25T01:09:09.510Z,3.40
2019-03-25T01:11:48.657Z,3.27
2019-03-25T01:14:11.301Z,3.27
2019-03-25T01:16:41.356Z,3.27
2019-03-25T01:19:11.358Z,2.67
2019-03-25T01:21:41.312Z,3.90
2019-03-25T01:24:11.542Z,2.77
2019-03-25T01:26:41.494Z,3.23
2019-03-25T01:29:11.451Z,3.20
2019-03-25T01:31:41.390Z,3.00
2019-03-25T01:34:11.402Z,3.03
2019-03-25T01:36:41.506Z,2.63
2019-03-25T01:39:11.478Z,3.57
2019-03-25T01:41:41.420Z,3.03
2019-03-25T01:44:11.621Z,3.17
2019-03-25T01:46:41.600Z,2.70
2019-03-25T01:49:11.587Z,2.90
2019-03-25T01:51:41.536Z,2.80
2019-03-25T01:54:11.549Z,2.93
2019-03-25T01:56:41.601Z,3.27
2019-03-25T01:59:11.651Z,2.90
2019-03-25T02:01:41.702Z,3.20
2019-03-25T02:04:11.825Z,3.10
2019-03-25T02:06:41.872Z,2.87
2019-03-25T02:09:11.839Z,3.03
2019-03-25T02:11:41.795Z,2.90
2019-03-25T02:14:11.753Z,3.00
2019-03-25T02:16:41.853Z,2.70
2019-03-25T02:19:11.848Z,3.23
2019-03-25T02:21:41.791Z,2.90
2019-03-25T02:24:11.978Z,2.33
2019-03-25T02:26:42.159Z,3.13
2019-03-25T02:29:12.162Z,2.33
2019-03-25T02:31:42.094Z,2.77
2019-03-25T02:34:12.094Z,2.70
2019-03-25T02:36:42.090Z,2.30
2019-03-25T02:39:12.166Z,2.80
2019-03-25T02:41:42.216Z,2.97
2019-03-25T02:44:12.199Z,2.70
2019-03-25T02:46:42.275Z,3.00
2019-03-25T02:49:12.251Z,2.53
2019-03-25T02:51:42.250Z,2.13
2019-03-25T02:54:12.481Z,2.97
2019-03-25T02:56:42.497Z,2.60
2019-03-25T02:59:12.480Z,2.47
2019-03-25T03:01:42.482Z,3.37
2019-03-25T03:04:12.499Z,2.97
2019-03-25T03:06:42.471Z,2.33
2019-03-25T03:09:12.534Z,2.60
2019-03-25T03:11:42.482Z,2.67
2019-03-25T03:14:15.267Z,2.97
2019-03-25T03:16:44.139Z,3.47
2019-03-25T03:19:14.106Z,2.97
2019-03-25T03:21:44.076Z,2.27
2019-03-25T03:24:14.063Z,2.43
2019-03-25T03:26:44.018Z,2.63
2019-03-25T03:29:13.986Z,2.43
2019-03-25T03:31:55.773Z,2.67
2019-03-25T03:34:26.050Z,2.53
2019-03-25T03:36:56.106Z,3.03
2019-03-25T03:39:26.108Z,2.43
2019-03-25T03:41:56.249Z,3.00
2019-03-25T03:44:26.247Z,2.83
2019-03-25T03:46:56.205Z,2.53
2019-03-25T03:49:26.134Z,2.87
2019-03-25T03:51:56.650Z,2.50
2019-03-25T03:54:26.905Z,2.40
2019-03-25T03:56:57.138Z,2.70
2019-03-25T03:59:27.177Z,2.50
2019-03-25T04:01:57.132Z,2.73
2019-03-25T04:04:27.067Z,2.77
2019-03-25T04:06:57.049Z,2.50
2019-03-25T04:09:27.001Z,2.43
2019-03-25T04:11:57.042Z,2.90
2019-03-25T04:14:26.983Z,2.60
2019-03-25T04:16:56.963Z,2.40
2019-03-25T04:19:26.934Z,2.83
2019-03-25T04:21:56.903Z,2.77
2019-03-25T04:24:26.883Z,3.30
2019-03-25T04:26:56.846Z,3.03
2019-03-25T04:29:26.861Z,2.93
2019-03-25T04:31:56.812Z,2.90
2019-03-25T04:34:26.759Z,3.00
2019-03-25T04:36:56.712Z,3.43
2019-03-25T04:39:26.727Z,3.00
2019-03-25T04:41:56.782Z,3.30
2019-03-25T04:44:26.710Z,2.90
2019-03-25T04:46:56.671Z,2.60
2019-03-25T04:49:26.628Z,3.10
2019-03-25T04:51:56.677Z,3.03
2019-03-25T04:54:26.649Z,3.23
2019-03-25T04:56:56.694Z,3.33
2019-03-25T04:59:26.710Z,3.60
2019-03-25T05:01:56.777Z,3.47
2019-03-25T05:04:26.709Z,3.40
2019-03-25T05:06:56.738Z,3.13
2019-03-25T05:09:26.680Z,3.53
2019-03-25T05:11:56.648Z,3.47
2019-03-25T05:14:26.691Z,3.83
2019-03-25T05:16:56.682Z,2.60
2019-03-25T05:19:26.632Z,3.17
2019-03-25T05:21:56.611Z,3.93
2019-03-25T05:24:26.553Z,3.40
2019-03-25T05:26:56.715Z,3.03
2019-03-25T05:29:26.709Z,3.30
2019-03-25T05:31:56.738Z,3.03
2019-03-25T05:34:26.701Z,3.30
2019-03-25T05:36:56.698Z,3.37
2019-03-25T05:39:26.638Z,3.63
2019-03-25T05:41:56.587Z,3.20
2019-03-25T05:44:26.645Z,3.43
2019-03-25T05:46:56.609Z,4.27
2019-03-25T05:49:26.661Z,3.30
2019-03-25T05:51:56.839Z,3.63
2019-03-25T05:54:27.006Z,3.73
2019-03-25T05:57:02.432Z,3.80
2019-03-25T05:59:28.753Z,4.17
2019-03-25T06:01:58.894Z,3.10
2019-03-25T06:04:28.846Z,3.30
2019-03-25T06:06:59.103Z,3.43
2019-03-25T06:09:29.126Z,3.40
2019-03-25T06:11:59.186Z,3.53
2019-03-25T06:14:29.154Z,4.33
2019-03-25T06:16:59.230Z,4.13
2019-03-25T06:19:29.242Z,5.13
2019-03-25T06:21:59.187Z,4.43
2019-03-25T06:24:29.182Z,5.47
2019-03-25T06:26:59.362Z,4.73
2019-03-25T06:29:31.930Z,4.97
2019-03-25T06:32:01.034Z,4.70
2019-03-25T06:34:31.126Z,5.07
2019-03-25T06:37:01.120Z,5.17
2019-03-25T06:39:31.150Z,5.43
2019-03-25T06:42:01.083Z,5.30
2019-03-25T06:44:31.202Z,5.10
2019-03-25T06:47:01.397Z,4.60
2019-03-25T06:49:31.646Z,4.90
2019-03-25T06:52:01.867Z,6.13
2019-03-25T06:54:32.095Z,6.10
2019-03-25T06:57:02.181Z,5.20
2019-03-25T06:59:32.149Z,5.50
2019-03-25T07:02:02.523Z,4.97
2019-03-25T07:04:32.603Z,6.27
2019-03-25T07:07:02.829Z,6.00
2019-03-25T07:09:32.808Z,5.27
2019-03-25T07:12:03.513Z,4.77
2019-03-25T07:14:33.529Z,5.30
2019-03-25T07:17:03.861Z,6.87
2019-03-25T07:19:34.124Z,5.50
2019-03-25T07:22:04.497Z,5.00
2019-03-25T07:24:34.577Z,5.93
2019-03-25T07:27:05.031Z,5.20
2019-03-25T07:29:35.031Z,6.60
2019-03-25T07:32:05.365Z,5.87
2019-03-25T07:34:35.377Z,6.67
2019-03-25T07:37:05.556Z,6.50
2019-03-25T07:39:35.604Z,8.33
2019-03-25T07:42:05.602Z,8.17
2019-03-25T07:44:35.573Z,7.40
2019-03-25T07:47:06.628Z,7.37
2019-03-25T07:49:36.608Z,7.47
2019-03-25T07:52:07.189Z,8.33
2019-03-25T07:54:37.324Z,7.33
2019-03-25T07:57:07.398Z,7.80
2019-03-25T07:59:37.523Z,7.50
2019-03-25T08:02:07.911Z,7.73
2019-03-25T08:04:38.801Z,8.73
2019-03-25T08:07:09.158Z,8.10
2019-03-25T08:09:39.205Z,8.20
2019-03-25T08:12:09.304Z,7.67
2019-03-25T08:14:39.309Z,7.13
2019-03-25T08:17:09.466Z,7.73
2019-03-25T08:19:39.487Z,7.57
2019-03-25T08:22:09.616Z,8.03
2019-03-25T08:24:39.692Z,6.77
2019-03-25T08:27:09.879Z,7.23
2019-03-25T08:29:39.874Z,7.27
2019-03-25T08:32:09.841Z,7.17
2019-03-25T08:34:39.859Z,6.53
2019-03-25T08:37:09.881Z,7.23
2019-03-25T08:39:39.983Z,6.43
2019-03-25T08:42:10.037Z,5.93
2019-03-25T08:44:40.156Z,5.63
2019-03-25T08:47:10.189Z,5.67
2019-03-25T08:49:40.205Z,6.20
2019-03-25T08:52:10.213Z,5.80
2019-03-25T08:54:40.275Z,6.07
2019-03-25T08:57:10.405Z,5.63
2019-03-25T08:59:40.408Z,5.67
2019-03-25T09:02:10.647Z,5.70
2019-03-25T09:04:40.569Z,5.27
2019-03-25T09:07:10.650Z,4.83
2019-03-25T09:09:40.635Z,5.23
2019-03-25T09:12:11.945Z,4.87
2019-03-25T09:14:41.901Z,5.10
2019-03-25T09:17:11.965Z,4.97
2019-03-25T09:19:42.085Z,4.77
2019-03-25T09:22:12.139Z,4.80
2019-03-25T09:24:42.199Z,5.30
2019-03-25T09:27:12.365Z,4.80
2019-03-25T09:29:42.531Z,4.77
2019-03-25T09:32:12.594Z,4.30
2019-03-25T09:34:42.549Z,4.33
2019-03-25T09:37:13.165Z,4.93
2019-03-25T09:39:43.279Z,4.90
2019-03-25T09:42:13.527Z,4.97
2019-03-25T09:44:43.615Z,4.80
2019-03-25T09:47:13.594Z,4.90
2019-03-25T09:49:43.558Z,5.10
2019-03-25T09:52:13.600Z,6.10
2019-03-25T09:54:43.535Z,4.73
2019-03-25T09:57:13.502Z,5.07
2019-03-25T09:59:43.494Z,5.10
2019-03-25T10:02:13.450Z,4.90
2019-03-25T10:04:43.501Z,4.70
2019-03-25T10:07:23.185Z,4.23
2019-03-25T10:09:53.318Z,4.60
2019-03-25T10:12:23.442Z,4.10
2019-03-25T10:14:53.380Z,3.70
2019-03-25T10:17:23.342Z,2.77
2019-03-25T10:19:53.386Z,2.20
2019-03-25T10:22:24.721Z,1.93
2019-03-25T10:24:54.770Z,2.40
2019-03-25T10:27:24.884Z,2.53
2019-03-25T10:29:54.846Z,2.10
2019-03-25T10:32:24.800Z,2.13
2019-03-25T10:34:54.788Z,2.60
2019-03-25T10:37:24.792Z,2.37
2019-03-25T10:39:54.843Z,2.17
2019-03-25T10:42:24.848Z,3.27
2019-03-25T10:44:54.816Z,2.07
2019-03-25T10:47:24.768Z,2.00
2019-03-25T10:49:54.798Z,2.30
2019-03-25T10:52:24.775Z,1.80
2019-03-25T10:57:24.835Z,1.97
2019-03-25T10:59:54.914Z,2.20
2019-03-25T11:02:24.915Z,2.63
2019-03-25T11:04:54.874Z,3.00
2019-03-25T11:07:24.880Z,3.57
2019-03-25T11:09:54.965Z,4.27
2019-03-25T11:12:25.089Z,3.27
2019-03-25T11:14:55.704Z,4.43
2019-03-25T11:17:25.771Z,2.80
2019-03-25T11:19:55.818Z,3.03
2019-03-25T11:22:25.857Z,2.30
2019-03-25T11:24:55.899Z,3.40
2019-03-25T11:27:26.054Z,1.97
2019-03-25T11:29:56.095Z,1.80
2019-03-25T11:32:26.089Z,1.80
2019-03-25T11:34:56.121Z,1.97
2019-03-25T11:37:26.115Z,1.83
2019-03-25T11:39:56.181Z,2.20
2019-03-25T11:42:26.149Z,1.87
2019-03-25T11:44:56.190Z,1.47
2019-03-25T11:47:26.229Z,2.30
2019-03-25T11:49:56.309Z,2.50
2019-03-25T11:52:26.294Z,2.00
2019-03-25T11:54:56.262Z,2.10
2019-03-25T11:57:26.253Z,1.83
2019-03-25T11:59:56.226Z,1.97
2019-03-25T12:02:26.618Z,1.83
2019-03-25T12:04:56.574Z,1.97
2019-03-25T12:07:26.582Z,1.97
2019-03-25T12:09:56.680Z,1.90
2019-03-25T12:12:26.668Z,1.50
2019-03-25T12:14:56.742Z,1.10
2019-03-25T12:17:26.738Z,1.50
2019-03-25T12:19:56.721Z,1.60
2019-03-25T12:22:26.896Z,1.40
2019-03-25T12:24:56.888Z,1.87
2019-03-25T12:27:27.004Z,1.63
2019-03-25T12:29:57.073Z,1.90
2019-03-25T12:32:27.504Z,1.90
2019-03-25T12:34:57.687Z,1.87
2019-03-25T12:37:27.779Z,2.00
2019-03-25T12:39:57.841Z,2.10
2019-03-25T12:42:27.943Z,1.80
2019-03-25T12:44:58.391Z,1.87
2019-03-25T12:47:28.509Z,6.60
2019-03-25T12:49:58.493Z,2.00
2019-03-25T12:52:28.480Z,2.47
2019-03-25T12:54:58.531Z,1.60
2019-03-25T12:57:31.345Z,1.47
2019-03-25T13:00:07.203Z,1.50
2019-03-25T13:02:45.954Z,1.60
2019-03-25T13:05:16.010Z,1.40
2019-03-25T13:07:45.990Z,1.40
2019-03-25T13:10:15.995Z,1.60
2019-03-25T13:12:45.974Z,1.80
2019-03-25T13:15:16.044Z,1.60
2019-03-25T13:17:46.062Z,1.50
2019-03-25T13:20:16.236Z,1.00
2019-03-25T13:22:46.233Z,1.50
2019-03-25T13:25:16.178Z,0.80
2019-03-25T13:27:46.176Z,1.40
2019-03-25T13:30:16.832Z,1.40
2019-03-25T13:32:46.916Z,1.20
2019-03-25T13:35:16.870Z,1.50
2019-03-25T13:37:46.800Z,1.30
2019-03-25T13:40:17.176Z,1.20
2019-03-25T13:42:47.193Z,2.10
2019-03-25T13:45:17.285Z,1.27
2019-03-25T13:47:47.275Z,1.20
2019-03-25T13:50:17.429Z,1.10
2019-03-25T13:52:47.396Z,1.03
2019-03-25T13:55:17.449Z,1.00
2019-03-25T13:57:47.533Z,1.30
2019-03-25T14:00:21.931Z,1.20
2019-03-25T14:02:52.085Z,1.37
2019-03-25T14:05:22.350Z,1.20
2019-03-25T14:07:52.326Z,0.90
2019-03-25T14:10:22.404Z,2.17
2019-03-25T14:12:52.361Z,1.13
2019-03-25T14:15:22.419Z,0.80
2019-03-25T14:17:52.422Z,0.97
2019-03-25T14:20:22.457Z,0.60
2019-03-25T14:22:52.404Z,0.70
2019-03-25T14:25:22.343Z,0.70
2019-03-25T14:27:52.405Z,0.70
2019-03-25T14:30:22.585Z,0.90
2019-03-25T14:32:52.549Z,0.50
2019-03-25T14:35:22.586Z,1.43
2019-03-25T14:37:53.138Z,0.90
2019-03-25T14:40:25.487Z,1.23
2019-03-25T14:42:54.820Z,1.00
2019-03-25T14:45:26.742Z,0.90
2019-03-25T14:47:56.634Z,1.60
2019-03-25T14:50:26.618Z,1.20
2019-03-25T14:52:56.646Z,1.20
2019-03-25T14:55:26.692Z,1.00
2019-03-25T14:57:56.817Z,0.90
2019-03-25T15:00:26.856Z,0.93
2019-03-25T15:02:56.974Z,0.97
2019-03-25T15:05:27.025Z,0.70
2019-03-25T15:07:57.113Z,1.20
2019-03-25T15:10:27.210Z,1.03
2019-03-25T15:12:57.522Z,1.13
2019-03-25T15:15:27.473Z,1.20
2019-03-25T15:17:57.517Z,1.00
2019-03-25T15:20:27.691Z,1.20
2019-03-25T15:22:57.832Z,1.30
2019-03-25T15:25:27.855Z,1.30
2019-03-25T15:27:57.898Z,1.20
2019-03-25T15:30:35.836Z,1.50
2019-03-25T15:32:59.819Z,1.50
2019-03-25T15:35:30.043Z,1.70
2019-03-25T15:38:00.111Z,1.60
2019-03-25T15:40:30.351Z,1.90
2019-03-25T15:43:00.525Z,1.10
2019-03-25T15:45:30.478Z,1.47
2019-03-25T15:48:00.643Z,1.50
2019-03-25T15:50:30.700Z,1.30
2019-03-25T15:53:00.726Z,1.77
2019-03-25T15:55:30.758Z,1.80
2019-03-25T15:58:00.730Z,1.30
2019-03-25T16:00:30.878Z,1.23
2019-03-25T16:03:00.935Z,1.33
2019-03-25T16:05:30.995Z,1.50
2019-03-25T16:08:01.271Z,1.20
2019-03-25T16:10:31.682Z,1.37
2019-03-25T16:13:01.836Z,1.30
2019-03-25T16:15:39.579Z,1.10
2019-03-25T16:18:10.675Z,1.10
2019-03-25T16:20:40.780Z,2.00
2019-03-25T16:23:10.806Z,2.20
2019-03-25T16:25:40.774Z,1.60
2019-03-25T16:28:10.853Z,1.10
2019-03-25T16:30:41.001Z,1.20
2019-03-25T16:33:11.043Z,1.47
2019-03-25T16:35:41.076Z,1.93
2019-03-25T16:38:11.154Z,1.50
2019-03-25T16:40:41.260Z,1.57
2019-03-25T16:43:11.286Z,1.50
2019-03-25T16:45:41.542Z,1.43
2019-03-25T16:48:11.598Z,1.27
2019-03-25T16:50:41.650Z,1.57
2019-03-25T16:53:11.726Z,1.50
2019-03-25T16:55:41.762Z,1.50
2019-03-25T16:58:11.992Z,2.03
2019-03-25T17:00:41.979Z,1.43
2019-03-25T17:03:12.012Z,1.40
2019-03-25T17:05:42.535Z,1.50
2019-03-25T17:08:12.668Z,2.20
2019-03-25T17:10:42.812Z,1.53
2019-03-25T17:13:12.845Z,1.70
2019-03-25T17:15:42.855Z,1.90
2019-03-25T17:18:31.915Z,2.00
2019-03-25T17:21:01.873Z,1.60
2019-03-25T17:23:31.835Z,1.60
2019-03-25T17:26:01.820Z,1.80
2019-03-25T17:28:32.189Z,1.70
2019-03-25T17:31:03.200Z,1.97
2019-03-25T17:33:33.506Z,2.47
2019-03-25T17:36:03.834Z,2.03
2019-03-25T17:38:33.901Z,1.53
2019-03-25T17:41:03.989Z,1.70
2019-03-25T17:43:34.073Z,2.93
2019-03-25T17:46:04.154Z,1.80
2019-03-25T17:48:34.175Z,2.43
2019-03-25T17:51:05.524Z,1.80
2019-03-25T17:53:35.531Z,1.90
2019-03-25T17:56:08.334Z,3.23
2019-03-25T17:58:38.757Z,2.60
2019-03-25T18:01:15.012Z,2.83
2019-03-25T18:03:45.107Z,4.07
2019-03-25T18:06:15.174Z,2.00
2019-03-25T18:08:45.241Z,2.07
2019-03-25T18:11:15.416Z,2.13
2019-03-25T18:13:45.557Z,2.20
2019-03-25T18:16:15.542Z,2.90
2019-03-25T18:18:45.646Z,2.07
2019-03-25T18:21:15.603Z,1.60
2019-03-25T18:23:45.610Z,2.30
2019-03-25T18:26:15.566Z,2.20
2019-03-25T18:28:45.614Z,1.93
2019-03-25T18:31:15.578Z,2.00
2019-03-25T18:33:45.620Z,1.90
2019-03-25T18:36:15.575Z,1.90
2019-03-25T18:38:45.581Z,1.93
2019-03-25T18:41:15.570Z,3.77
2019-03-25T18:43:45.743Z,2.07
2019-03-25T18:46:15.792Z,2.20
2019-03-25T18:48:45.910Z,2.00
2019-03-25T18:51:15.976Z,1.90
2019-03-25T18:53:46.188Z,1.97
2019-03-25T18:56:16.340Z,4.67
2019-03-25T18:58:46.468Z,2.77
2019-03-25T19:01:16.573Z,1.60
2019-03-25T19:03:46.699Z,2.10
2019-03-25T19:06:17.059Z,1.97
2019-03-25T19:08:47.309Z,3.30
2019-03-25T19:11:17.292Z,2.07
2019-03-25T19:13:47.359Z,2.10
2019-03-25T19:16:17.353Z,2.30
2019-03-25T19:18:47.330Z,1.87
2019-03-25T19:21:17.441Z,2.53
2019-03-25T19:23:47.380Z,3.17
2019-03-25T19:26:17.413Z,4.27
2019-03-25T19:28:47.424Z,2.37
2019-03-25T19:31:17.414Z,2.00
2019-03-25T19:33:47.450Z,1.80
2019-03-25T19:36:17.549Z,4.87
2019-03-25T19:38:47.487Z,2.47
2019-03-25T19:41:22.851Z,1.80
2019-03-25T19:43:49.204Z,1.80
2019-03-25T19:46:19.265Z,2.33
2019-03-25T19:48:49.260Z,2.07
2019-03-25T19:51:19.306Z,1.47
2019-03-25T19:53:49.383Z,1.60
2019-03-25T19:56:19.481Z,1.87
2019-03-25T19:58:49.678Z,3.80
2019-03-25T20:01:19.698Z,1.63
2019-03-25T20:03:49.847Z,1.70
2019-03-25T20:06:26.052Z,1.90
2019-03-25T20:08:51.777Z,1.73
2019-03-25T20:11:22.003Z,1.90
2019-03-25T20:13:52.071Z,1.63
2019-03-25T20:16:22.398Z,1.83
2019-03-25T20:18:52.442Z,1.50
2019-03-25T20:21:22.497Z,1.70
2019-03-25T20:23:52.685Z,2.40
2019-03-25T20:26:22.798Z,2.47
2019-03-25T20:28:53.060Z,3.20
2019-03-25T20:31:23.070Z,2.40
2019-03-25T20:33:53.071Z,1.77
2019-03-25T20:36:23.025Z,2.50
2019-03-25T20:38:53.132Z,2.30
2019-03-25T20:41:23.241Z,2.10
2019-03-25T20:43:53.234Z,1.70
2019-03-25T20:46:23.231Z,1.47
2019-03-25T20:48:53.214Z,1.80
2019-03-25T20:51:23.191Z,1.80
2019-03-25T20:53:53.344Z,1.60
2019-03-25T20:56:23.487Z,1.60
2019-03-25T20:58:53.587Z,2.23
2019-03-25T21:01:23.666Z,1.70
2019-03-25T21:03:53.834Z,1.90
2019-03-25T21:06:23.905Z,2.37
2019-03-25T21:08:53.936Z,1.70
2019-03-25T21:11:23.904Z,1.73
2019-03-25T21:13:53.927Z,2.00
2019-03-25T21:16:23.998Z,1.97
2019-03-25T21:18:54.132Z,1.87
2019-03-25T21:21:24.190Z,1.80
2019-03-25T21:23:54.212Z,2.37
2019-03-25T21:26:24.277Z,2.13
2019-03-25T21:28:54.383Z,2.33
2019-03-25T21:31:24.653Z,2.30
2019-03-25T21:33:54.733Z,2.10
2019-03-25T21:36:24.916Z,1.70
2019-03-25T21:38:55.001Z,2.20
2019-03-25T21:41:25.296Z,1.97
2019-03-25T21:43:55.568Z,2.43
2019-03-25T21:46:25.666Z,2.17
2019-03-25T21:48:55.792Z,1.93
2019-03-25T21:51:25.904Z,2.03
2019-03-25T21:53:56.070Z,2.10
2019-03-25T21:56:26.070Z,3.40
2019-03-25T21:58:56.262Z,2.40
2019-03-25T22:01:26.491Z,2.13
2019-03-25T22:03:56.622Z,2.40
2019-03-25T22:06:26.960Z,2.53
2019-03-25T22:08:56.965Z,2.37
2019-03-25T22:11:26.943Z,2.40
2019-03-25T22:13:56.987Z,2.23
2019-03-25T22:16:26.968Z,2.00
2019-03-25T22:18:57.043Z,2.10
2019-03-25T22:21:27.051Z,2.13
2019-03-25T22:23:57.019Z,2.07
2019-03-25T22:26:27.045Z,2.50
2019-03-25T22:28:58.487Z,2.40
2019-03-25T22:31:28.513Z,2.50
2019-03-25T22:33:58.565Z,2.17
2019-03-25T22:36:28.575Z,2.47
2019-03-25T22:38:58.568Z,2.23
2019-03-25T22:41:28.523Z,2.13
2019-03-25T22:43:58.567Z,2.47
2019-03-25T22:46:28.515Z,2.70
2019-03-25T22:48:58.471Z,2.53
2019-03-25T22:51:28.430Z,2.43
2019-03-25T22:53:58.403Z,2.30
2019-03-25T22:56:28.362Z,2.73
2019-03-25T22:58:58.315Z,2.60
2019-03-25T23:01:28.416Z,2.93
2019-03-25T23:03:58.371Z,3.17
2019-03-25T23:06:28.457Z,2.60
2019-03-25T23:08:58.467Z,2.30
2019-03-25T23:11:29.381Z,2.57
2019-03-25T23:13:59.361Z,2.43
2019-03-25T23:16:29.328Z,2.80
2019-03-25T23:18:59.284Z,2.97
2019-03-25T23:21:29.218Z,2.30
2019-03-25T23:23:59.174Z,2.57
2019-03-25T23:26:29.300Z,2.70
2019-03-25T23:28:59.293Z,2.67
2019-03-25T23:31:29.279Z,2.33
2019-03-25T23:33:59.244Z,3.33
2019-03-25T23:36:29.200Z,2.80
2019-03-25T23:38:59.167Z,2.97
2019-03-25T23:41:29.140Z,2.87
2019-03-25T23:43:59.113Z,2.83
2019-03-25T23:46:29.146Z,3.00
2019-03-25T23:48:59.214Z,3.07
2019-03-25T23:51:29.222Z,2.80
2019-03-25T23:54:18.307Z,3.20
2019-03-25T23:56:48.271Z,3.60
2019-03-25T23:59:18.231Z,3.43
